Time;durP1;ratioP1;P1;durP2;ratioP2;P2;SDS_P1;SDS_P2;PMS_P1;PMS_P2;Temp;Humidity;BMP_temperature;BMP_pressure;BME280_temperature;BME280_humidity;BME280_pressure;Samples;Min_cycle;Max_cycle;Signal;HPM_P1;HPM_P2
2023/12/26 00:02:52;;;;;;;0.43;0.40;;;11.80;90.80;;;;;;9170075;19;20023;-73
2023/12/26 00:05:58;;;;;;;1.15;0.50;;;11.80;90.80;;;;;;9170924;19;20025;-72
2023/12/26 00:09:06;;;;;;;0.80;0.77;;;11.80;90.90;;;;;;9174911;19;20002;-74
2023/12/26 00:12:15;;;;;;;0.90;0.80;;;11.80;90.90;;;;;;9179241;19;20015;-72
2023/12/26 00:15:22;;;;;;;0.70;0.60;;;11.80;90.90;;;;;;9175790;19;20739;-72
2023/12/26 00:18:28;;;;;;;0.40;0.30;;;11.80;90.90;;;;;;9176354;19;20028;-73
2023/12/26 00:21:36;;;;;;;0.38;0.38;;;11.80;91.40;;;;;;9177348;19;20025;-74
2023/12/26 00:24:41;;;;;;;0.30;0.30;;;11.90;91.30;;;;;;9177500;19;20022;-73
2023/12/26 00:27:52;;;;;;;0.20;0.20;;;11.80;91.00;;;;;;9175567;19;20018;-71
2023/12/26 00:30:57;;;;;;;0.20;0.20;;;11.90;91.20;;;;;;9177327;19;20019;-73
2023/12/26 00:34:05;;;;;;;2.58;0.40;;;11.90;91.80;;;;;;9175735;19;20506;-73
2023/12/26 00:37:11;;;;;;;0.20;0.20;;;11.90;91.20;;;;;;9178117;19;20014;-73
2023/12/26 00:40:19;;;;;;;1.85;0.68;;;11.90;93.10;;;;;;9177432;19;20025;-72
2023/12/26 00:43:27;;;;;;;0.20;0.17;;;11.90;91.20;;;;;;9176987;19;20479;-73
2023/12/26 00:46:35;;;;;;;0.17;0.17;;;11.90;91.20;;;;;;9176053;19;20491;-75
2023/12/26 00:49:41;;;;;;;0.22;0.22;;;12.00;91.20;;;;;;9176875;19;20082;-76
2023/12/26 00:52:48;;;;;;;1.52;0.45;;;12.00;91.20;;;;;;9175453;19;20360;-76
2023/12/26 00:55:56;;;;;;;0.65;0.40;;;12.00;91.30;;;;;;9173236;19;20010;-76
2023/12/26 00:59:06;;;;;;;0.30;0.30;;;12.00;91.30;;;;;;9176332;19;20019;-75
2023/12/26 01:02:12;;;;;;;0.30;0.20;;;12.00;91.30;;;;;;9172365;19;20022;-76
2023/12/26 01:05:22;;;;;;;0.57;0.50;;;12.00;91.30;;;;;;9174788;19;20048;-76
2023/12/26 01:08:40;;;;;;;0.30;0.30;;;12.00;91.30;;;;;;9176199;19;20018;-76
2023/12/26 01:11:48;;;;;;;2.80;0.30;;;12.00;91.30;;;;;;9172473;19;20010;-75
2023/12/26 01:14:56;;;;;;;0.35;0.35;;;12.10;91.30;;;;;;9174207;19;20450;-76
2023/12/26 01:18:07;;;;;;;0.40;0.40;;;12.10;91.40;;;;;;9173585;19;20018;-76
2023/12/26 01:21:13;;;;;;;1.35;0.40;;;12.10;91.30;;;;;;9174524;19;20505;-77
2023/12/26 01:24:22;;;;;;;0.95;0.30;;;12.10;91.30;;;;;;9174680;19;20018;-76
2023/12/26 01:27:30;;;;;;;2.10;0.50;;;12.10;91.30;;;;;;9173741;19;20010;-76
2023/12/26 01:30:41;;;;;;;0.43;0.30;;;12.10;91.30;;;;;;9175675;19;20010;-76
2023/12/26 01:33:47;;;;;;;4.13;0.47;;;12.10;94.00;;;;;;9175731;19;20014;-76
2023/12/26 01:36:55;;;;;;;0.35;0.35;;;12.10;91.50;;;;;;9175897;19;20026;-76
2023/12/26 01:40:01;;;;;;;1.65;0.40;;;12.20;92.30;;;;;;9177107;19;20021;-76
2023/12/26 01:43:09;;;;;;;1.48;0.30;;;12.00;91.50;;;;;;9189521;19;20096;-77
2023/12/26 01:46:19;;;;;;;0.30;0.30;;;12.10;91.50;;;;;;9193548;19;20018;-77
2023/12/26 01:49:27;;;;;;;0.40;0.40;;;12.10;91.90;;;;;;9194280;19;20018;-77
2023/12/26 01:52:35;;;;;;;0.63;0.25;;;12.00;91.30;;;;;;9192664;19;20014;-76
2023/12/26 01:55:44;;;;;;;1.20;0.50;;;12.00;91.30;;;;;;9193183;19;20021;-78
2023/12/26 01:58:51;;;;;;;2.47;0.55;;;12.00;91.30;;;;;;9190945;19;20021;-76
2023/12/26 02:02:02;;;;;;;0.60;0.40;;;12.00;91.20;;;;;;9190419;19;20025;-76
2023/12/26 02:05:09;;;;;;;3.30;0.40;;;12.00;91.30;;;;;;9189979;19;20026;-76
2023/12/26 02:08:18;;;;;;;1.08;0.35;;;12.00;91.30;;;;;;9188862;19;20021;-76
2023/12/26 02:11:24;;;;;;;2.55;0.60;;;12.00;91.30;;;;;;9188487;19;20044;-76
2023/12/26 02:14:32;;;;;;;2.58;0.50;;;12.00;91.30;;;;;;9190422;19;20025;-76
2023/12/26 02:17:42;;;;;;;0.50;0.50;;;12.00;91.40;;;;;;9192432;19;20038;-76
2023/12/26 02:20:50;;;;;;;2.50;0.40;;;12.00;91.20;;;;;;9190958;19;20014;-76
2023/12/26 02:23:59;;;;;;;5.38;0.57;;;12.00;91.20;;;;;;9191363;19;20034;-76
2023/12/26 02:27:08;;;;;;;1.70;0.40;;;12.00;91.20;;;;;;9189240;19;20061;-76
2023/12/26 02:30:16;;;;;;;2.50;0.52;;;12.00;91.30;;;;;;9189079;19;20050;-76
2023/12/26 02:33:26;;;;;;;4.50;0.70;;;12.00;91.30;;;;;;9191182;19;20473;-75
2023/12/26 02:36:33;;;;;;;2.33;0.40;;;12.00;91.30;;;;;;9188538;19;20595;-75
2023/12/26 02:39:43;;;;;;;1.88;0.45;;;12.10;91.50;;;;;;9189375;19;20094;-75
2023/12/26 02:42:49;;;;;;;2.83;0.40;;;12.00;91.20;;;;;;9191157;19;20018;-75
2023/12/26 02:45:57;;;;;;;1.30;0.30;;;11.90;91.20;;;;;;9190028;19;20014;-76
2023/12/26 02:49:02;;;;;;;3.63;0.40;;;11.90;91.10;;;;;;9190845;19;20021;-76
2023/12/26 02:52:11;;;;;;;2.15;0.65;;;11.90;91.10;;;;;;9181646;19;20014;-76
2023/12/26 02:55:19;;;;;;;4.07;0.60;;;11.90;91.10;;;;;;9180377;19;20011;-76
2023/12/26 02:58:27;;;;;;;3.53;0.63;;;11.80;91.20;;;;;;9181280;19;20018;-76
2023/12/26 03:01:33;;;;;;;1.98;0.50;;;11.90;92.20;;;;;;9179742;19;20099;-76
2023/12/26 03:04:40;;;;;;;2.17;0.50;;;11.70;91.00;;;;;;9173917;19;20090;-76
2023/12/26 03:07:46;;;;;;;3.47;0.82;;;11.70;91.00;;;;;;9178899;19;20448;-77
2023/12/26 03:10:56;;;;;;;4.28;0.70;;;11.70;91.00;;;;;;9184413;19;20048;-76
2023/12/26 03:14:04;;;;;;;2.17;0.90;;;11.60;91.00;;;;;;9181569;19;20074;-76
2023/12/26 03:17:12;;;;;;;3.63;0.77;;;11.60;90.90;;;;;;9175773;19;20018;-77
2023/12/26 03:20:18;;;;;;;4.38;0.90;;;11.60;90.90;;;;;;9180865;19;20019;-78
2023/12/26 03:23:28;;;;;;;5.03;0.70;;;11.50;91.00;;;;;;9179273;19;20011;-76
2023/12/26 03:26:37;;;;;;;8.00;1.63;;;11.50;90.90;;;;;;9180471;19;20018;-75
2023/12/26 03:29:45;;;;;;;5.68;0.90;;;11.50;91.00;;;;;;9179266;19;20025;-76
2023/12/26 03:32:50;;;;;;;2.65;0.50;;;11.40;90.90;;;;;;9181735;19;20014;-76
2023/12/26 03:35:58;;;;;;;3.28;0.65;;;11.40;90.90;;;;;;9180628;19;20031;-75
2023/12/26 03:39:06;;;;;;;7.60;0.98;;;11.40;90.90;;;;;;9181355;19;20044;-76
2023/12/26 03:42:16;;;;;;;4.00;0.90;;;11.40;90.90;;;;;;9184124;19;20080;-76
2023/12/26 03:45:26;;;;;;;5.07;1.00;;;11.40;90.90;;;;;;9183342;19;20011;-76
2023/12/26 03:48:34;;;;;;;4.05;0.88;;;11.40;90.90;;;;;;9185027;19;20033;-75
2023/12/26 03:51:40;;;;;;;9.93;1.45;;;11.40;90.90;;;;;;9182887;19;20007;-76
2023/12/26 03:54:47;;;;;;;5.25;0.80;;;11.40;91.00;;;;;;9184259;19;20030;-76
2023/12/26 03:57:56;;;;;;;8.68;1.20;;;11.40;91.00;;;;;;9180428;19;20026;-76
2023/12/26 04:01:04;;;;;;;7.35;1.10;;;11.30;90.90;;;;;;9179199;19;20457;-75
2023/12/26 04:04:10;;;;;;;5.30;1.08;;;11.30;91.20;;;;;;9178048;19;20359;-76
2023/12/26 04:07:18;;;;;;;8.70;1.58;;;11.20;91.00;;;;;;9182602;19;20354;-77
2023/12/26 04:10:24;;;;;;;6.78;1.70;;;11.20;90.90;;;;;;9181980;19;20103;-76
2023/12/26 04:13:35;;;;;;;3.70;1.27;;;11.20;91.00;;;;;;9183627;19;20010;-76
2023/12/26 04:16:40;;;;;;;3.13;1.25;;;11.20;91.00;;;;;;9183800;19;20014;-75
2023/12/26 04:19:50;;;;;;;4.80;1.30;;;11.10;90.90;;;;;;9176607;19;20015;-75
2023/12/26 04:22:55;;;;;;;11.10;1.58;;;11.10;90.90;;;;;;9176314;19;20078;-76
2023/12/26 04:26:03;;;;;;;6.05;1.20;;;11.10;90.90;;;;;;9177752;19;20018;-75
2023/12/26 04:29:12;;;;;;;5.55;1.27;;;11.10;90.90;;;;;;9176830;19;20014;-76
2023/12/26 04:32:19;;;;;;;9.07;2.47;;;11.00;90.90;;;;;;9175651;19;20018;-76
2023/12/26 04:35:26;;;;;;;3.33;1.27;;;11.00;90.90;;;;;;9175756;19;20021;-76
2023/12/26 04:38:34;;;;;;;7.10;1.00;;;11.00;90.90;;;;;;9175179;19;20094;-75
2023/12/26 04:41:39;;;;;;;6.05;0.88;;;10.90;90.80;;;;;;9177308;19;20025;-75
2023/12/26 04:44:50;;;;;;;3.88;0.82;;;10.90;90.80;;;;;;9174933;19;20018;-75
2023/12/26 04:47:56;;;;;;;5.72;1.05;;;10.80;90.70;;;;;;9175437;19;20007;-76
2023/12/26 04:51:06;;;;;;;9.68;1.35;;;10.70;90.70;;;;;;9174557;19;20026;-75
2023/12/26 04:54:12;;;;;;;3.78;0.55;;;11.70;90.90;;;;;;9174691;19;20043;-74
2023/12/26 04:57:20;;;;;;;10.63;1.83;;;11.40;91.30;;;;;;9173981;19;20479;-75
2023/12/26 05:00:28;;;;;;;9.15;1.25;;;10.60;90.50;;;;;;9174238;19;20011;-75
2023/12/26 05:03:36;;;;;;;5.18;0.85;;;10.50;90.50;;;;;;9172173;19;20015;-76
2023/12/26 05:06:42;;;;;;;5.30;0.85;;;10.50;90.50;;;;;;9175896;19;20883;-75
2023/12/26 05:09:50;;;;;;;3.95;1.17;;;10.50;90.50;;;;;;9172406;19;20019;-75
2023/12/26 05:12:56;;;;;;;6.60;0.95;;;10.50;90.50;;;;;;9175895;19;20018;-75
2023/12/26 05:16:08;;;;;;;3.38;0.95;;;10.90;90.90;;;;;;9172262;19;20007;-75
2023/12/26 05:19:14;;;;;;;7.57;1.65;;;10.40;90.40;;;;;;9174061;19;20029;-75
2023/12/26 05:22:23;;;;;;;9.50;1.13;;;10.40;90.40;;;;;;9173401;19;20038;-75
2023/12/26 05:25:29;;;;;;;2.90;1.13;;;10.40;90.40;;;;;;9174831;19;20464;-75
2023/12/26 05:28:39;;;;;;;4.57;1.27;;;10.30;90.40;;;;;;9175965;19;20019;-76
2023/12/26 05:31:48;;;;;;;6.90;1.52;;;10.30;90.50;;;;;;9175495;19;20085;-76
2023/12/26 05:34:57;;;;;;;5.35;1.38;;;10.30;90.40;;;;;;9176195;19;20369;-75
2023/12/26 05:38:03;;;;;;;14.80;1.60;;;10.20;90.40;;;;;;9174428;19;20017;-75
2023/12/26 05:41:12;;;;;;;9.48;1.50;;;10.20;90.40;;;;;;9175885;19;20017;-76
2023/12/26 05:44:18;;;;;;;5.72;1.10;;;10.20;90.40;;;;;;9176477;19;20455;-76
2023/12/26 05:47:32;;;;;;;5.65;1.08;;;10.20;90.50;;;;;;9177338;19;20018;-75
2023/12/26 05:50:38;;;;;;;10.63;1.30;;;10.10;90.40;;;;;;9175752;19;20052;-76
2023/12/26 05:53:46;;;;;;;4.85;1.25;;;10.10;90.50;;;;;;9175282;19;20122;-74
2023/12/26 05:56:52;;;;;;;8.57;1.27;;;10.10;90.50;;;;;;9176356;19;20033;-77
2023/12/26 06:00:00;;;;;;;7.45;1.20;;;10.10;90.50;;;;;;9175914;19;20499;-76
2023/12/26 06:03:10;;;;;;;4.18;1.25;;;10.00;90.50;;;;;;9170612;19;20571;-76
2023/12/26 06:06:19;;;;;;;8.43;1.23;;;10.00;90.50;;;;;;9174453;19;20040;-75
2023/12/26 06:09:29;;;;;;;18.00;1.52;;;10.00;90.40;;;;;;9172603;19;20011;-76
2023/12/26 06:12:37;;;;;;;7.20;1.40;;;10.00;90.40;;;;;;9172886;19;20369;-75
2023/12/26 06:15:43;;;;;;;4.82;1.23;;;10.00;90.40;;;;;;9173598;19;20015;-76
2023/12/26 06:18:53;;;;;;;8.80;1.08;;;9.90;90.40;;;;;;9171001;19;20010;-76
2023/12/26 06:21:59;;;;;;;5.15;1.00;;;9.90;90.40;;;;;;9174953;19;20007;-76
2023/12/26 06:25:09;;;;;;;8.02;1.10;;;9.90;90.40;;;;;;9173976;19;20018;-75
2023/12/26 06:28:15;;;;;;;7.43;1.27;;;9.90;90.40;;;;;;9184236;19;20376;-76
2023/12/26 06:31:23;;;;;;;12.95;1.50;;;9.80;90.40;;;;;;9185791;19;20046;-77
2023/12/26 06:34:31;;;;;;;9.60;1.65;;;9.80;90.40;;;;;;9184364;19;20014;-76
2023/12/26 06:37:40;;;;;;;7.72;1.50;;;9.80;90.40;;;;;;9182422;19;20010;-75
2023/12/26 06:40:46;;;;;;;6.00;1.50;;;9.80;90.40;;;;;;9185787;19;20034;-76
2023/12/26 06:43:54;;;;;;;10.02;1.45;;;9.80;90.30;;;;;;9185011;19;20334;-76
2023/12/26 06:46:59;;;;;;;17.67;1.58;;;9.80;90.40;;;;;;9185882;19;20086;-76
2023/12/26 06:50:10;;;;;;;8.98;1.63;;;9.80;90.40;;;;;;9185216;19;20010;-75
2023/12/26 06:53:16;;;;;;;8.77;1.08;;;9.70;90.30;;;;;;9186322;19;20010;-77
2023/12/26 06:56:24;;;;;;;8.02;1.42;;;9.70;90.30;;;;;;9189640;19;20030;-76
2023/12/26 06:59:31;;;;;;;17.67;1.90;;;9.70;90.30;;;;;;9182714;19;20504;-77
2023/12/26 07:02:39;;;;;;;16.15;1.90;;;9.70;90.40;;;;;;9184471;19;20021;-77
2023/12/26 07:05:47;;;;;;;20.95;1.80;;;9.70;90.30;;;;;;9190235;19;20035;-77
2023/12/26 07:08:56;;;;;;;10.20;2.00;;;9.70;90.30;;;;;;9187866;19;20010;-76
2023/12/26 07:12:02;;;;;;;8.50;1.30;;;9.60;90.30;;;;;;9188074;19;20036;-77
2023/12/26 07:15:11;;;;;;;7.95;1.90;;;9.60;90.30;;;;;;9189584;19;20022;-75
2023/12/26 07:18:17;;;;;;;15.43;1.42;;;9.60;90.30;;;;;;9188753;19;20007;-76
2023/12/26 07:21:28;;;;;;;17.50;1.60;;;9.60;90.60;;;;;;9188003;19;20044;-77
2023/12/26 07:24:34;;;;;;;10.15;1.88;;;9.60;90.30;;;;;;9188665;19;20014;-78
2023/12/26 07:27:42;;;;;;;9.20;1.85;;;9.60;90.40;;;;;;9189943;19;20029;-77
2023/12/26 07:30:48;;;;;;;11.15;1.80;;;9.80;90.50;;;;;;9183721;19;20015;-77
2023/12/26 07:33:57;;;;;;;13.95;1.55;;;9.60;90.30;;;;;;9184359;19;20021;-77
2023/12/26 07:37:07;;;;;;;13.75;3.10;;;9.70;90.50;;;;;;9183755;19;20019;-78
2023/12/26 07:40:16;;;;;;;19.20;2.30;;;9.60;90.30;;;;;;9184688;19;20018;-77
2023/12/26 07:43:21;;;;;;;9.70;1.73;;;9.60;90.40;;;;;;9183373;19;20070;-77
2023/12/26 07:46:29;;;;;;;14.52;2.13;;;9.60;90.30;;;;;;9183461;19;20003;-76
2023/12/26 07:49:35;;;;;;;11.35;2.35;;;9.60;90.30;;;;;;9184796;19;20391;-77
2023/12/26 07:52:45;;;;;;;15.35;2.03;;;9.60;90.20;;;;;;9185325;19;20025;-77
2023/12/26 07:55:51;;;;;;;15.15;2.10;;;9.50;90.20;;;;;;9186367;19;20018;-78
2023/12/26 07:59:00;;;;;;;10.40;1.98;;;9.50;90.20;;;;;;9183684;19;20010;-78
2023/12/26 08:02:06;;;;;;;10.80;1.42;;;9.50;90.20;;;;;;9183214;19;20015;-78
2023/12/26 08:05:14;;;;;;;16.63;2.35;;;9.50;90.20;;;;;;9185465;19;20025;-77
2023/12/26 08:08:22;;;;;;;8.40;1.73;;;9.50;90.20;;;;;;9185738;19;20094;-78
2023/12/26 08:11:33;;;;;;;10.25;2.00;;;9.50;90.10;;;;;;9185739;19;20034;-78
2023/12/26 08:14:38;;;;;;;17.02;2.92;;;9.50;90.20;;;;;;9183199;19;20022;-76
2023/12/26 08:17:46;;;;;;;13.30;1.67;;;9.50;90.20;;;;;;9183269;19;20011;-77
2023/12/26 08:20:52;;;;;;;9.57;1.70;;;9.50;90.10;;;;;;9181528;19;20014;-78
2023/12/26 08:24:03;;;;;;;13.85;2.20;;;9.50;90.10;;;;;;9180662;19;20487;-77
2023/12/26 08:27:09;;;;;;;8.38;1.95;;;9.50;90.10;;;;;;9176874;19;20496;-77
2023/12/26 08:30:19;;;;;;;9.77;1.70;;;9.50;90.10;;;;;;9178062;19;20011;-77
2023/12/26 08:33:25;;;;;;;12.23;1.65;;;9.50;90.30;;;;;;9176676;19;20381;-77
2023/12/26 08:36:33;;;;;;;6.53;1.73;;;10.20;92.80;;;;;;9173029;19;20025;-76
2023/12/26 08:39:41;;;;;;;17.55;1.73;;;9.50;90.20;;;;;;9173562;19;20038;-77
2023/12/26 08:42:49;;;;;;;10.82;2.22;;;9.60;90.30;;;;;;9176754;19;20017;-76
2023/12/26 08:45:55;;;;;;;18.58;2.28;;;9.50;90.20;;;;;;9177879;19;20042;-77
2023/12/26 08:49:03;;;;;;;15.88;2.08;;;9.50;91.00;;;;;;9176427;19;20457;-78
2023/12/26 08:52:13;;;;;;;22.75;2.20;;;9.50;90.40;;;;;;9176085;19;20040;-76
2023/12/26 08:55:24;;;;;;;10.82;1.33;;;9.50;90.30;;;;;;9175987;19;20453;-76
2023/12/26 08:58:31;;;;;;;11.57;1.90;;;9.50;90.70;;;;;;9176742;19;20059;-75
2023/12/26 09:01:39;;;;;;;20.65;2.15;;;9.50;91.10;;;;;;9174930;19;20017;-76
2023/12/26 09:04:46;;;;;;;8.75;1.67;;;9.40;89.80;;;;;;9170240;19;20017;-76
2023/12/26 09:07:54;;;;;;;8.52;1.95;;;9.40;89.60;;;;;;9174500;19;20026;-76
2023/12/26 09:11:02;;;;;;;15.35;2.13;;;9.40;89.60;;;;;;9173663;19;20891;-75
2023/12/26 09:14:13;;;;;;;10.52;1.70;;;9.40;89.60;;;;;;9172942;19;20021;-76
2023/12/26 09:17:19;;;;;;;16.42;2.72;;;9.30;89.60;;;;;;9175736;19;20022;-75
2023/12/26 09:20:26;;;;;;;10.48;1.77;;;9.30;89.70;;;;;;9173780;19;20516;-75
2023/12/26 09:23:32;;;;;;;20.92;2.38;;;9.30;89.60;;;;;;9175501;19;20025;-75
2023/12/26 09:26:42;;;;;;;5.70;1.48;;;9.30;89.60;;;;;;9173819;19;20011;-75
2023/12/26 09:29:48;;;;;;;17.77;1.77;;;9.20;89.60;;;;;;9175535;19;20480;-76
2023/12/26 09:32:55;;;;;;;8.45;1.73;;;9.20;89.70;;;;;;9176029;19;20074;-74
2023/12/26 09:36:04;;;;;;;12.13;1.50;;;9.20;89.70;;;;;;9172112;19;20014;-75
2023/12/26 09:39:12;;;;;;;17.20;2.03;;;9.20;89.70;;;;;;9174901;19;20018;-75
2023/12/26 09:42:24;;;;;;;15.55;1.67;;;9.20;89.70;;;;;;9173126;19;20121;-75
2023/12/26 09:45:35;;;;;;;16.80;2.35;;;9.20;89.80;;;;;;9173874;19;20007;-76
2023/12/26 09:48:41;;;;;;;10.30;1.75;;;9.20;89.90;;;;;;9173464;19;20019;-76
2023/12/26 09:51:51;;;;;;;20.02;1.98;;;9.30;90.10;;;;;;9174340;19;20025;-76
2023/12/26 09:54:59;;;;;;;8.38;1.88;;;9.30;90.80;;;;;;9173350;19;20006;-75
2023/12/26 09:58:09;;;;;;;15.18;2.25;;;9.30;89.90;;;;;;9174508;19;20014;-76
2023/12/26 10:01:24;;;;;;;12.45;1.83;;;9.30;89.90;;;;;;9177119;19;20748;-76
2023/12/26 10:04:32;;;;;;;11.13;2.20;;;9.30;90.00;;;;;;9179737;19;20029;-76
2023/12/26 10:07:38;;;;;;;12.73;1.65;;;9.40;90.00;;;;;;9180449;19;20022;-76
2023/12/26 10:10:46;;;;;;;19.65;2.28;;;9.40;90.00;;;;;;9183211;19;20019;-74
2023/12/26 10:13:55;;;;;;;16.20;2.80;;;9.50;90.40;;;;;;9183570;19;20488;-75
2023/12/26 10:17:03;;;;;;;9.48;2.22;;;9.50;89.90;;;;;;9182713;19;20014;-74
2023/12/26 10:20:12;;;;;;;6.75;1.63;;;9.50;89.90;;;;;;9181435;19;20118;-74
2023/12/26 10:23:21;;;;;;;16.00;2.40;;;9.60;90.00;;;;;;9180324;19;20026;-74
2023/12/26 10:26:26;;;;;;;12.55;1.50;;;10.30;91.70;;;;;;9182082;19;20545;-74
2023/12/26 10:29:36;;;;;;;14.80;2.10;;;9.70;89.80;;;;;;9182551;19;20025;-74
2023/12/26 10:32:42;;;;;;;19.48;1.98;;;9.70;89.70;;;;;;9181223;19;20028;-74
2023/12/26 10:36:03;;;;;;;16.67;1.73;;;9.70;89.60;;;;;;9182823;19;20030;-74
2023/12/26 10:39:09;;;;;;;15.23;1.67;;;9.80;89.50;;;;;;9181964;19;20015;-74
2023/12/26 10:42:19;;;;;;;11.05;1.70;;;9.80;89.50;;;;;;9181913;19;20093;-74
2023/12/26 10:45:28;;;;;;;15.77;2.15;;;9.90;89.50;;;;;;9181215;19;20086;-73
2023/12/26 10:48:36;;;;;;;12.52;2.88;;;9.90;89.50;;;;;;9179758;19;20737;-74
2023/12/26 10:51:44;;;;;;;13.85;1.67;;;9.90;89.50;;;;;;9180904;19;20014;-74
2023/12/26 10:54:54;;;;;;;21.67;2.25;;;10.00;89.40;;;;;;9180386;19;20022;-63
2023/12/26 10:58:19;;;;;;;22.63;2.35;;;10.00;89.40;;;;;;9179574;19;20019;-63
2023/12/26 13:51:26;;;;;;;11.57;2.35;;;10.30;86.90;;;;;;9174356;19;20476;-61
2023/12/26 13:55:04;;;;;;;11.60;1.83;;;10.30;86.80;;;;;;9174364;19;20014;-61
2023/12/26 13:58:12;;;;;;;9.93;2.40;;;10.30;86.80;;;;;;9174453;19;20575;-61
2023/12/26 14:01:55;;;;;;;15.25;1.92;;;10.30;86.80;;;;;;9171159;19;20022;-63
2023/12/26 14:05:31;;;;;;;11.50;1.70;;;10.30;86.70;;;;;;9170323;19;20052;-59
2023/12/26 14:09:08;;;;;;;15.90;3.58;;;10.30;86.60;;;;;;9174060;19;20823;-59
2023/12/26 14:12:14;;;;;;;13.85;2.17;;;10.30;86.50;;;;;;9173427;19;20452;-59
2023/12/26 14:15:24;;;;;;;15.00;1.98;;;10.30;86.60;;;;;;9173493;19;20033;-63
2023/12/26 14:19:00;;;;;;;16.00;3.03;;;10.30;86.50;;;;;;9170644;19;20499;-58
2023/12/26 14:22:11;;;;;;;8.55;1.70;;;10.30;87.00;;;;;;9170400;19;20023;-60
2023/12/26 14:25:46;;;;;;;13.18;1.73;;;10.30;86.60;;;;;;9173796;19;20019;-58
2023/12/26 14:28:54;;;;;;;12.55;2.50;;;10.30;86.30;;;;;;9172907;19;20018;-57
2023/12/26 14:32:05;;;;;;;6.68;1.60;;;10.30;86.40;;;;;;9172978;19;20403;-60
2023/12/26 14:35:43;;;;;;;13.25;1.65;;;10.30;86.30;;;;;;9171987;19;20030;-59
2023/12/26 14:38:48;;;;;;;5.65;1.10;;;10.30;86.10;;;;;;9173033;19;20018;-60
2023/12/26 14:42:26;;;;;;;10.43;1.85;;;10.30;86.20;;;;;;9170522;19;20026;-61
2023/12/26 14:46:01;;;;;;;9.52;1.45;;;10.30;86.00;;;;;;9169134;19;20044;-62
2023/12/26 14:49:11;;;;;;;5.85;1.70;;;10.30;86.00;;;;;;9178361;19;20396;-63
2023/12/26 14:52:47;;;;;;;12.23;2.00;;;10.30;86.10;;;;;;9179732;19;20025;-63
2023/12/26 14:55:55;;;;;;;15.60;2.58;;;10.30;85.90;;;;;;9180888;19;20025;-65
2023/12/26 14:59:30;;;;;;;19.23;1.98;;;10.30;86.10;;;;;;9181421;19;20535;-64
2023/12/26 15:02:38;;;;;;;10.55;1.77;;;10.20;85.90;;;;;;9174982;19;20010;-63
2023/12/26 15:05:46;;;;;;;13.25;2.65;;;10.20;86.00;;;;;;9180544;19;20019;-63
2023/12/26 15:08:54;;;;;;;8.93;1.80;;;10.20;86.10;;;;;;9180588;19;20015;-64
2023/12/26 15:12:02;;;;;;;15.02;1.92;;;10.10;86.00;;;;;;9180751;19;20010;-63
2023/12/26 15:15:11;;;;;;;12.25;2.40;;;10.20;86.70;;;;;;9176495;19;20011;-63
2023/12/26 15:18:17;;;;;;;12.73;1.83;;;10.10;86.00;;;;;;9180404;19;20007;-64
2023/12/26 15:21:27;;;;;;;3.88;1.20;;;10.10;85.90;;;;;;9179527;19;20019;-62
2023/12/26 15:24:33;;;;;;;3.63;0.80;;;10.10;85.90;;;;;;9180844;19;20007;-63
2023/12/26 15:27:41;;;;;;;8.43;0.98;;;10.00;85.80;;;;;;9180565;19;20023;-66
2023/12/26 15:30:47;;;;;;;6.00;1.67;;;10.00;85.90;;;;;;9180364;19;20022;-63
2023/12/26 15:33:54;;;;;;;6.53;1.50;;;9.90;85.90;;;;;;9180377;19;20015;-63
2023/12/26 15:37:03;;;;;;;11.68;1.80;;;9.90;86.00;;;;;;9180385;19;20018;-64
2023/12/26 15:40:11;;;;;;;5.13;1.27;;;9.90;86.00;;;;;;9179865;19;20010;-64
2023/12/26 15:43:16;;;;;;;6.25;1.13;;;9.80;85.90;;;;;;9177811;19;20107;-64
2023/12/26 15:46:26;;;;;;;10.15;1.42;;;9.70;85.90;;;;;;9179689;19;20338;-64
2023/12/26 15:49:31;;;;;;;8.30;1.38;;;9.70;86.00;;;;;;9180038;19;20048;-63
2023/12/26 15:52:42;;;;;;;6.07;1.05;;;9.60;86.00;;;;;;9179667;19;20021;-63
2023/12/26 15:55:48;;;;;;;8.75;1.38;;;9.60;86.00;;;;;;9179705;19;20030;-63
2023/12/26 15:58:55;;;;;;;8.75;1.50;;;9.60;86.00;;;;;;9178427;19;20018;-63
2023/12/26 16:02:01;;;;;;;7.80;1.67;;;9.50;86.00;;;;;;9175178;19;20033;-63
2023/12/26 16:05:09;;;;;;;7.05;1.80;;;9.50;86.00;;;;;;9178589;19;20030;-63
2023/12/26 16:08:21;;;;;;;10.52;1.52;;;9.50;86.10;;;;;;9179429;19;20022;-60
2023/12/26 16:11:33;;;;;;;11.05;1.45;;;9.50;86.10;;;;;;9175610;19;20594;-63
2023/12/26 16:14:39;;;;;;;10.90;1.67;;;9.50;86.10;;;;;;9179112;19;20680;-63
2023/12/26 16:17:47;;;;;;;5.82;1.02;;;9.50;86.10;;;;;;9177087;19;20015;-62
2023/12/26 16:20:52;;;;;;;6.03;0.90;;;9.40;86.10;;;;;;9177616;19;20442;-63
2023/12/26 16:24:03;;;;;;;9.98;1.55;;;9.40;86.10;;;;;;9176452;19;20022;-64
2023/12/26 16:27:08;;;;;;;5.05;1.20;;;9.40;86.10;;;;;;9178672;19;20021;-63
2023/12/26 16:30:17;;;;;;;8.02;2.40;;;9.40;86.10;;;;;;9177782;19;20018;-63
2023/12/26 16:33:23;;;;;;;11.10;1.20;;;9.30;86.00;;;;;;9177239;19;20489;-63
2023/12/26 16:36:30;;;;;;;6.80;1.30;;;9.30;86.00;;;;;;9178043;19;20014;-62
2023/12/26 16:39:39;;;;;;;7.40;1.23;;;9.30;86.00;;;;;;9178433;19;20018;-62
2023/12/26 16:42:48;;;;;;;2.38;0.95;;;9.30;86.00;;;;;;9176060;19;20644;-71
2023/12/26 16:45:53;;;;;;;7.97;1.33;;;9.20;86.00;;;;;;9176624;19;20014;-61
2023/12/26 16:49:01;;;;;;;6.30;1.25;;;9.20;86.00;;;;;;9177216;19;20019;-61
2023/12/26 16:52:07;;;;;;;7.72;1.73;;;9.20;86.00;;;;;;9176556;19;20026;-63
2023/12/26 16:55:18;;;;;;;6.40;1.75;;;9.10;86.00;;;;;;9176353;19;20788;-63
2023/12/26 16:58:23;;;;;;;8.23;1.30;;;9.10;86.00;;;;;;9175888;19;20388;-64
2023/12/26 17:01:31;;;;;;;5.30;1.23;;;9.10;86.10;;;;;;9175938;19;20030;-62
2023/12/26 17:04:37;;;;;;;8.45;1.73;;;9.00;86.00;;;;;;9173519;19;20026;-61
2023/12/26 17:07:44;;;;;;;6.30;1.50;;;9.00;86.00;;;;;;9174822;19;20015;-59
2023/12/26 17:10:53;;;;;;;10.13;2.15;;;9.00;86.00;;;;;;9174016;19;20011;-61
2023/12/26 17:14:01;;;;;;;8.77;2.45;;;9.00;86.10;;;;;;9175982;19;20022;-61
2023/12/26 17:17:07;;;;;;;6.20;1.85;;;9.00;86.10;;;;;;9168033;19;20026;-61
2023/12/26 17:20:16;;;;;;;9.98;1.48;;;9.00;86.10;;;;;;9172414;19;20014;-77
2023/12/26 17:23:22;;;;;;;9.05;1.48;;;8.90;86.10;;;;;;9173834;19;20018;-76
2023/12/26 17:26:32;;;;;;;10.23;1.70;;;8.90;86.10;;;;;;9173792;19;20019;-76
2023/12/26 17:29:38;;;;;;;8.95;1.77;;;8.90;86.20;;;;;;9172648;19;20360;-76
2023/12/26 17:32:45;;;;;;;6.75;1.40;;;8.90;86.10;;;;;;9175611;19;20382;-77
2023/12/26 17:35:51;;;;;;;15.73;1.48;;;8.80;86.10;;;;;;9175322;19;20022;-76
2023/12/26 17:38:59;;;;;;;8.75;1.75;;;8.80;86.10;;;;;;9173266;19;20015;-76
2023/12/26 17:42:08;;;;;;;10.63;1.98;;;8.80;86.20;;;;;;9172930;19;20010;-77
2023/12/26 17:45:16;;;;;;;10.60;2.20;;;8.80;86.20;;;;;;9174550;19;20017;-77
2023/12/26 17:48:22;;;;;;;7.93;2.13;;;8.80;86.30;;;;;;9173179;19;20019;-76
2023/12/26 17:51:30;;;;;;;12.68;2.38;;;8.80;86.30;;;;;;9173658;19;20484;-77
2023/12/26 17:54:36;;;;;;;8.15;2.05;;;8.80;86.30;;;;;;9172307;19;20062;-77
2023/12/26 17:57:46;;;;;;;11.73;2.10;;;8.80;86.30;;;;;;9174456;19;20353;-77
2023/12/26 18:01:00;;;;;;;8.45;2.75;;;8.80;86.40;;;;;;9170850;19;20025;-76
2023/12/26 18:04:09;;;;;;;11.43;3.42;;;8.80;86.40;;;;;;9164419;19;20029;-76
2023/12/26 18:07:19;;;;;;;13.00;2.95;;;8.70;86.30;;;;;;9171387;19;20010;-76
2023/12/26 18:10:27;;;;;;;10.57;2.85;;;8.80;86.40;;;;;;9172848;19;20011;-76
2023/12/26 18:13:38;;;;;;;8.95;2.10;;;8.70;86.30;;;;;;9172586;19;20111;-77
2023/12/26 18:16:48;;;;;;;10.43;2.22;;;8.70;86.40;;;;;;9174752;19;20017;-76
2023/12/26 18:19:58;;;;;;;10.00;2.08;;;8.70;87.10;;;;;;9175391;19;20017;-75
2023/12/26 18:23:09;;;;;;;11.13;1.77;;;8.70;86.40;;;;;;9178797;19;20018;-75
2023/12/26 18:26:18;;;;;;;18.42;2.17;;;8.60;86.30;;;;;;9181583;19;20014;-78
2023/12/26 18:29:30;;;;;;;9.23;1.70;;;8.60;86.40;;;;;;9181699;19;20021;-77
2023/12/26 18:32:35;;;;;;;12.45;2.28;;;8.60;86.30;;;;;;9181373;19;20108;-76
2023/12/26 18:35:43;;;;;;;8.00;1.65;;;8.60;86.30;;;;;;9182799;19;20045;-77
2023/12/26 18:38:49;;;;;;;8.65;1.60;;;8.60;86.30;;;;;;9183192;19;20078;-76
2023/12/26 18:41:58;;;;;;;9.05;1.73;;;8.50;86.30;;;;;;9181074;19;20377;-78
2023/12/26 18:45:09;;;;;;;5.32;2.33;;;8.50;86.40;;;;;;9177833;19;20031;-76
2023/12/26 18:48:18;;;;;;;9.35;2.47;;;8.50;86.30;;;;;;9183453;19;20017;-75
2023/12/26 18:51:27;;;;;;;9.40;2.13;;;8.50;86.40;;;;;;9182510;19;20018;-76
2023/12/26 18:54:35;;;;;;;10.38;2.55;;;8.40;86.30;;;;;;9181072;19;20014;-77
2023/12/26 18:57:41;;;;;;;14.07;2.97;;;8.40;86.40;;;;;;9179642;19;20040;-76
2023/12/26 19:00:58;;;;;;;10.13;3.17;;;8.40;86.50;;;;;;9179020;19;20047;-77
2023/12/26 19:04:03;;;;;;;14.00;2.70;;;8.30;86.40;;;;;;9176234;19;20078;-76
2023/12/26 19:07:15;;;;;;;12.55;2.67;;;8.30;86.50;;;;;;9179519;19;20018;-75
2023/12/26 19:10:22;;;;;;;9.20;3.72;;;8.30;86.40;;;;;;9183211;19;20017;-76
2023/12/26 19:13:30;;;;;;;21.00;3.53;;;8.20;86.30;;;;;;9180923;19;20023;-75
2023/12/26 19:16:39;;;;;;;10.75;2.90;;;8.20;86.40;;;;;;9180935;19;20010;-76